KCXO

Conroe-North Houston Regional Airport

Houston, Texas, USA
METAR KCXO 231353Z 00000KT M1/4SM FG VV003 14/14 A3020 RMK AO2 SLP225 T01390139
Observed Flight Rules
Feb-23 @ 13:53 UTC (41 minutes ago) Instrument Flight Rules
Wind Visibility Clouds Conditions
Calm 1/4 miles
  • Vertical visibility at 300' AGL
  • Fog
Temperatures Readings
Current 14°C / 57°F
Dewpoint 14°C / 57°F
Humidity 100%
Altimeter 30.2" Hg
Pressure 1022.5 hPa
Elevation 75
METAR KCXO 231353Z 00000KT M1/4SM FG VV003 14/14 A3020 RMK AO2 SLP225 T01390139
Observed Flight Rules
Feb-23 @ 13:53 UTC
(41 minutes ago)
LIFR
Wind Visibility
Calm 1/4 miles
Clouds
  • Vertical visibility at 300' AGL
Conditions
  • Fog
Temperature Dewpoint
14°C / 57°F 14°C / 57°F
Humidity Altimeter Pressure
100% 30.2" Hg 1022.5 hPa